Time;durP1;ratioP1;P1;durP2;ratioP2;P2;SDS_P1;SDS_P2;PMS_P1;PMS_P2;Temp;Humidity;BMP_temperature;BMP_pressure;BME280_temperature;BME280_humidity;BME280_pressure;Samples;Min_cycle;Max_cycle;Signal;HPM_P1;HPM_P2
2023/05/17 17:40:14;;;;;;;3.85;1.73;;;23.20;41.90;;;;;;5109583;27;20319;-65
2023/05/17 17:42:40;;;;;;;5.30;1.75;;;23.00;42.40;;;;;;5110303;28;20036;-65
2023/05/17 17:45:06;;;;;;;7.78;1.80;;;22.80;41.70;;;;;;5118919;28;20032;-63
2023/05/17 17:47:31;;;;;;;5.35;1.80;;;22.50;41.80;;;;;;5108768;28;20024;-62
2023/05/17 17:49:57;;;;;;;6.80;1.98;;;22.30;42.00;;;;;;5109118;28;20016;-65
2023/05/17 17:52:23;;;;;;;4.22;1.33;;;22.40;42.70;;;;;;5108475;28;20028;-63
2023/05/17 17:54:48;;;;;;;8.02;1.80;;;22.40;42.00;;;;;;5124380;27;20027;-63
2023/05/17 17:57:14;;;;;;;9.93;2.85;;;22.40;42.30;;;;;;5129672;27;20047;-62
2023/05/17 17:59:40;;;;;;;8.02;1.92;;;22.20;42.70;;;;;;5128017;28;20035;-62
2023/05/17 18:02:05;;;;;;;5.63;1.67;;;22.40;44.20;;;;;;5111873;28;20020;-62
2023/05/17 18:04:31;;;;;;;5.80;1.52;;;22.40;43.30;;;;;;5108196;28;20376;-62
2023/05/17 18:06:56;;;;;;;9.40;1.92;;;22.40;43.40;;;;;;5108251;28;20048;-62
2023/05/17 18:09:22;;;;;;;4.32;1.58;;;22.20;43.60;;;;;;5108718;28;20027;-62
2023/05/17 18:11:48;;;;;;;6.47;1.52;;;22.00;43.10;;;;;;5108192;28;20069;-62
2023/05/17 18:14:14;;;;;;;8.35;2.08;;;21.50;43.60;;;;;;5109966;28;20112;-62
2023/05/17 18:16:40;;;;;;;6.20;2.15;;;20.70;44.80;;;;;;5109760;28;20019;-62
2023/05/17 18:19:05;;;;;;;5.85;1.85;;;19.80;46.20;;;;;;5109462;28;20034;-63
2023/05/17 18:21:31;;;;;;;4.47;1.50;;;18.80;47.20;;;;;;5109003;28;20059;-64
2023/05/17 18:23:57;;;;;;;6.20;1.65;;;18.10;48.80;;;;;;5119445;28;20379;-63
2023/05/17 18:26:23;;;;;;;5.55;2.40;;;17.70;50.30;;;;;;5129593;28;20042;-62
2023/05/17 18:28:49;;;;;;;5.72;1.95;;;17.30;50.70;;;;;;5118848;27;20077;-61
2023/05/17 18:31:17;;;;;;;10.45;1.77;;;17.00;52.10;;;;;;5106902;28;20062;-64
2023/05/17 18:33:43;;;;;;;6.50;1.77;;;16.60;51.90;;;;;;5108758;28;20024;-64
2023/05/17 18:36:08;;;;;;;6.10;1.58;;;16.20;53.20;;;;;;5107619;28;20073;-62
2023/05/17 18:38:34;;;;;;;4.35;1.52;;;15.90;54.10;;;;;;5106609;28;20102;-61
2023/05/17 18:41:00;;;;;;;9.43;2.00;;;15.90;54.60;;;;;;5108251;28;20530;-61
2023/05/17 18:43:28;;;;;;;6.13;1.80;;;15.70;54.60;;;;;;5108083;28;20450;-61
2023/05/17 18:45:53;;;;;;;4.63;1.33;;;15.60;55.00;;;;;;5106598;28;20023;-62
2023/05/17 18:48:21;;;;;;;4.60;1.80;;;15.40;55.40;;;;;;5107136;28;20364;-62
2023/05/17 18:50:47;;;;;;;6.05;1.70;;;15.30;55.80;;;;;;5098102;28;20528;-62
2023/05/17 18:53:13;;;;;;;9.95;1.73;;;15.20;56.20;;;;;;5094988;28;20107;-62
2023/05/17 18:55:39;;;;;;;5.30;1.75;;;15.10;56.60;;;;;;5095064;28;20362;-65
2023/05/17 18:58:05;;;;;;;6.90;1.77;;;15.00;57.00;;;;;;5093997;28;20024;-65
2023/05/17 19:00:31;;;;;;;7.57;2.05;;;14.90;57.30;;;;;;5093688;28;20036;-62
2023/05/17 19:02:57;;;;;;;6.20;1.73;;;14.70;57.80;;;;;;5094706;28;20012;-62
2023/05/17 19:05:22;;;;;;;5.82;1.70;;;14.60;58.20;;;;;;5094093;28;20066;-64
2023/05/17 19:07:48;;;;;;;5.32;1.65;;;14.50;58.60;;;;;;5094826;28;20392;-63
2023/05/17 19:10:14;;;;;;;6.35;1.75;;;14.40;59.20;;;;;;5094548;28;20111;-63
2023/05/17 19:12:40;;;;;;;5.65;1.75;;;14.30;59.50;;;;;;5093769;28;20077;-63
2023/05/17 19:15:08;;;;;;;4.25;2.10;;;14.20;59.90;;;;;;5093079;28;20039;-63
2023/05/17 19:17:34;;;;;;;5.38;2.00;;;14.10;60.40;;;;;;5076630;28;20329;-62
2023/05/17 19:20:00;;;;;;;4.05;2.00;;;13.90;60.90;;;;;;5093890;28;20042;-63
2023/05/17 19:22:25;;;;;;;6.35;1.65;;;13.90;61.60;;;;;;5094172;28;20058;-63
2023/05/17 19:24:51;;;;;;;4.35;1.63;;;13.80;61.90;;;;;;5092834;28;20056;-63
2023/05/17 19:27:18;;;;;;;5.13;1.70;;;13.70;62.80;;;;;;5093474;28;20020;-63
2023/05/17 19:29:45;;;;;;;8.90;1.67;;;13.60;62.60;;;;;;5092953;28;20073;-63
2023/05/17 19:32:11;;;;;;;8.70;1.30;;;13.60;63.30;;;;;;5093920;28;20464;-63
2023/05/17 19:34:36;;;;;;;6.35;1.80;;;13.50;63.60;;;;;;5093393;28;20032;-62
2023/05/17 19:37:02;;;;;;;5.88;1.52;;;13.30;64.10;;;;;;5094075;28;20440;-64
2023/05/17 19:39:28;;;;;;;8.30;2.00;;;13.20;65.20;;;;;;5093111;28;20069;-62
2023/05/17 19:41:53;;;;;;;3.80;1.63;;;13.10;65.00;;;;;;5092394;28;20491;-63
2023/05/17 19:44:19;;;;;;;6.72;2.25;;;13.00;65.50;;;;;;5098689;28;20043;-63
2023/05/17 19:46:44;;;;;;;4.70;1.70;;;12.80;65.80;;;;;;5102568;28;20020;-63
